Time;durP1;ratioP1;P1;durP2;ratioP2;P2;SDS_P1;SDS_P2;PMS_P1;PMS_P2;Temp;Humidity;BMP_temperature;BMP_pressure;BME280_temperature;BME280_humidity;BME280_pressure;Samples;Min_cycle;Max_cycle;Signal;HPM_P1;HPM_P2
2023/12/27 00:01:28;;;;;;;;;;;18.60;67.70;;;;;;5013357;28;43191;-80
2023/12/27 00:03:54;;;;;;;;;;;19.00;67.80;;;;;;5015326;28;43933;-80
2023/12/27 00:06:19;;;;;;;;;;;18.70;67.10;;;;;;5026748;28;42910;-81
2023/12/27 00:08:45;;;;;;;;;;;18.60;67.00;;;;;;5019161;28;42925;-80
2023/12/27 00:11:11;;;;;;;;;;;18.70;67.50;;;;;;5019727;28;42951;-80
2023/12/27 00:13:36;;;;;;;;;;;18.70;67.60;;;;;;5025789;28;42944;-80
2023/12/27 00:16:02;;;;;;;;;;;18.70;67.70;;;;;;5026199;28;43230;-80
2023/12/27 00:18:27;;;;;;;;;;;18.70;67.20;;;;;;5026050;28;43508;-80
2023/12/27 00:20:53;;;;;;;;;;;18.70;66.90;;;;;;5011091;28;42920;-80
2023/12/27 00:23:19;;;;;;;;;;;18.70;66.80;;;;;;5023572;28;43624;-80
2023/12/27 00:25:44;;;;;;;;;;;19.00;67.00;;;;;;5023248;28;42920;-81
2023/12/27 00:28:10;;;;;;;;;;;18.60;67.30;;;;;;5005311;28;43572;-80
2023/12/27 00:30:35;;;;;;;;;;;18.80;66.90;;;;;;5022907;28;43114;-80
2023/12/27 00:33:01;;;;;;;;;;;18.70;67.30;;;;;;5024538;28;43989;-82
2023/12/27 00:40:38;;;;;;;;;;;18.80;64.40;;;;;;5176617;22;43015;-81
2023/12/27 00:43:04;;;;;;;;;;;18.80;64.50;;;;;;5046550;28;43294;-80
2023/12/27 00:45:29;;;;;;;;;;;18.70;64.70;;;;;;5046738;28;43047;-80
2023/12/27 00:47:55;;;;;;;;;;;19.10;65.70;;;;;;5047407;28;42882;-80
2023/12/27 00:50:20;;;;;;;;;;;18.70;65.50;;;;;;5049839;28;43213;-81
2023/12/27 00:52:46;;;;;;;;;;;18.70;65.60;;;;;;5048741;28;42952;-81
2023/12/27 00:55:11;;;;;;;;;;;18.80;64.80;;;;;;5045944;28;43008;-82
2023/12/27 00:57:37;;;;;;;;;;;18.70;65.50;;;;;;5043825;28;43025;-81
2023/12/27 01:00:03;;;;;;;;;;;18.70;65.50;;;;;;5045174;28;42879;-80
2023/12/27 01:02:29;;;;;;;;;;;18.70;65.60;;;;;;5045496;28;44531;-80
2023/12/27 01:04:55;;;;;;;;;;;18.70;65.40;;;;;;5043577;28;43001;-80
2023/12/27 01:07:21;;;;;;;;;;;18.70;65.40;;;;;;5045742;28;43647;-81
2023/12/27 01:09:47;;;;;;;;;;;18.70;65.40;;;;;;5044779;28;43502;-80
2023/12/27 01:12:12;;;;;;;;;;;18.70;65.60;;;;;;5045019;28;43770;-79
2023/12/27 01:14:38;;;;;;;;;;;18.60;65.40;;;;;;5045624;28;43007;-80
2023/12/27 01:17:03;;;;;;;;;;;18.70;64.70;;;;;;5045331;28;43872;-82
2023/12/27 01:19:29;;;;;;;;;;;18.50;65.40;;;;;;5045489;28;42931;-82
2023/12/27 01:21:54;;;;;;;;;;;18.80;64.80;;;;;;5045564;28;42930;-81
2023/12/27 01:24:20;;;;;;;;;;;18.70;65.40;;;;;;5045948;28;42852;-81
2023/12/27 01:26:45;;;;;;;;;;;18.80;64.60;;;;;;5044723;28;43825;-81
2023/12/27 01:29:11;;;;;;;;;;;18.70;65.40;;;;;;5044746;28;42994;-81
2023/12/27 01:31:36;;;;;;;;;;;18.70;65.40;;;;;;5044632;28;43709;-81
2023/12/27 01:34:02;;;;;;;;;;;18.70;65.30;;;;;;5044863;28;42839;-82
2023/12/27 01:36:27;;;;;;;;;;;18.70;64.50;;;;;;5044275;28;43723;-81
2023/12/27 01:38:53;;;;;;;;;;;18.60;65.10;;;;;;5044652;28;43092;-81
2023/12/27 01:41:19;;;;;;;;;;;18.70;65.20;;;;;;5044805;28;43464;-81
2023/12/27 01:43:45;;;;;;;;;;;18.70;65.10;;;;;;5044391;28;43783;-81
2023/12/27 01:46:10;;;;;;;;;;;18.70;65.10;;;;;;5045122;28;43485;-82
2023/12/27 01:48:36;;;;;;;;;;;18.60;64.40;;;;;;5038038;28;43244;-81
2023/12/27 01:51:02;;;;;;;;;;;18.70;65.10;;;;;;5034548;28;43365;-81
2023/12/27 01:53:27;;;;;;;;;;;18.70;65.00;;;;;;5041770;28;43162;-81
2023/12/27 01:55:54;;;;;;;;;;;18.60;65.00;;;;;;5043417;28;43062;-81
2023/12/27 01:58:19;;;;;;;;;;;18.70;64.80;;;;;;5042255;28;43072;-82
2023/12/27 02:00:45;;;;;;;;;;;18.60;64.30;;;;;;5041258;28;43588;-81
2023/12/27 02:03:11;;;;;;;;;;;18.60;64.80;;;;;;5043085;28;43137;-82
2023/12/27 02:05:37;;;;;;;;;;;18.70;65.10;;;;;;5043409;28;43043;-82
2023/12/27 02:08:03;;;;;;;;;;;18.70;64.70;;;;;;5045274;28;42919;-79
2023/12/27 02:10:29;;;;;;;;;;;18.70;64.80;;;;;;5045127;28;43383;-81
2023/12/27 02:12:54;;;;;;;;;;;18.70;64.70;;;;;;5044958;28;42922;-82
2023/12/27 02:15:20;;;;;;;;;;;18.70;64.80;;;;;;5045103;28;42931;-81
2023/12/27 02:17:46;;;;;;;;;;;18.60;64.70;;;;;;5044837;28;43039;-81
2023/12/27 02:20:12;;;;;;;;;;;18.80;64.70;;;;;;5045007;28;43499;-81
2023/12/27 02:22:38;;;;;;;;;;;18.70;64.10;;;;;;5044387;28;43116;-81
2023/12/27 02:25:04;;;;;;;;;;;18.70;64.60;;;;;;5044816;28;42947;-81
2023/12/27 02:27:30;;;;;;;;;;;18.60;64.40;;;;;;5044980;28;42828;-81
2023/12/27 02:29:55;;;;;;;;;;;18.80;64.70;;;;;;5044835;28;42826;-81
2023/12/27 02:32:21;;;;;;;;;;;18.80;64.70;;;;;;5044602;28;42920;-80
2023/12/27 02:34:47;;;;;;;;;;;18.50;64.60;;;;;;5044624;28;42964;-81
2023/12/27 02:37:12;;;;;;;;;;;18.60;63.90;;;;;;5044181;28;42990;-80
2023/12/27 02:39:38;;;;;;;;;;;18.70;64.60;;;;;;5041563;28;43533;-82
2023/12/27 02:42:03;;;;;;;;;;;18.60;64.70;;;;;;5040457;28;43022;-81
2023/12/27 02:44:29;;;;;;;;;;;18.80;64.00;;;;;;5028322;28;42989;-82
2023/12/27 02:46:55;;;;;;;;;;;18.60;64.50;;;;;;5036677;28;43118;-82
2023/12/27 02:49:20;;;;;;;;;;;18.70;64.60;;;;;;5049150;28;44596;-81
2023/12/27 02:51:47;;;;;;;;;;;18.60;64.50;;;;;;5037860;28;43853;-82
2023/12/27 02:54:12;;;;;;;;;;;18.60;63.70;;;;;;5042611;28;42938;-82
2023/12/27 02:56:38;;;;;;;;;;;18.70;63.80;;;;;;5044300;28;43212;-81
2023/12/27 02:59:03;;;;;;;;;;;18.60;63.80;;;;;;5043611;28;43703;-82
2023/12/27 03:01:29;;;;;;;;;;;18.70;63.80;;;;;;5044068;28;43001;-81
2023/12/27 03:03:54;;;;;;;;;;;18.60;64.60;;;;;;5048777;28;43177;-82
2023/12/27 03:06:20;;;;;;;;;;;18.70;63.70;;;;;;5042535;28;42872;-82
2023/12/27 03:08:45;;;;;;;;;;;18.60;64.30;;;;;;5043453;28;42997;-79
2023/12/27 03:11:11;;;;;;;;;;;18.70;63.70;;;;;;5048765;28;42968;-80
2023/12/27 03:13:36;;;;;;;;;;;18.70;64.40;;;;;;5043580;28;43710;-80
2023/12/27 03:16:05;;;;;;;;;;;18.60;64.30;;;;;;5047492;28;42804;-79
2023/12/27 03:18:32;;;;;;;;;;;18.60;63.70;;;;;;5047400;28;43549;-80
2023/12/27 03:20:58;;;;;;;;;;;18.60;64.20;;;;;;5047388;28;42898;-80
2023/12/27 03:23:23;;;;;;;;;;;18.60;64.20;;;;;;5047540;28;42971;-80
2023/12/27 03:25:49;;;;;;;;;;;18.60;64.20;;;;;;5047009;28;43044;-80
2023/12/27 03:28:14;;;;;;;;;;;18.70;64.30;;;;;;5047020;28;43353;-80
2023/12/27 03:30:40;;;;;;;;;;;18.60;64.80;;;;;;5046614;28;42895;-80
2023/12/27 03:33:05;;;;;;;;;;;18.60;64.30;;;;;;5046628;28;43627;-80
2023/12/27 03:35:31;;;;;;;;;;;18.40;64.10;;;;;;5047104;28;43024;-80
2023/12/27 03:37:56;;;;;;;;;;;18.50;64.10;;;;;;5046988;28;43549;-80
2023/12/27 03:40:22;;;;;;;;;;;18.90;64.30;;;;;;5050796;28;43276;-80
2023/12/27 03:42:47;;;;;;;;;;;18.60;63.40;;;;;;5047254;28;42972;-80
2023/12/27 03:45:13;;;;;;;;;;;18.60;64.20;;;;;;5045662;28;42934;-81
2023/12/27 03:47:38;;;;;;;;;;;18.50;63.30;;;;;;5045102;28;44568;-80
2023/12/27 03:50:04;;;;;;;;;;;18.60;64.20;;;;;;5046619;28;42963;-79
2023/12/27 03:52:29;;;;;;;;;;;18.70;64.10;;;;;;5044840;28;44091;-81
2023/12/27 03:54:55;;;;;;;;;;;18.70;63.40;;;;;;5045918;28;42816;-80
2023/12/27 03:57:20;;;;;;;;;;;18.70;63.40;;;;;;5045848;28;43070;-80
2023/12/27 03:59:46;;;;;;;;;;;18.60;64.00;;;;;;5044524;28;43111;-80
2023/12/27 04:02:11;;;;;;;;;;;18.70;64.00;;;;;;5045778;28;43045;-80
2023/12/27 04:04:40;;;;;;;;;;;18.60;64.10;;;;;;5045676;28;43353;-80
2023/12/27 04:07:05;;;;;;;;;;;18.70;63.30;;;;;;5045473;28;43051;-81
2023/12/27 04:09:31;;;;;;;;;;;18.60;63.90;;;;;;5044578;28;42993;-81
2023/12/27 04:11:56;;;;;;;;;;;18.50;63.20;;;;;;5043930;28;44271;-80
2023/12/27 04:14:22;;;;;;;;;;;18.60;64.00;;;;;;5045377;28;42977;-80
2023/12/27 04:16:47;;;;;;;;;;;18.50;63.10;;;;;;5045295;28;42976;-80
2023/12/27 04:19:13;;;;;;;;;;;18.60;64.00;;;;;;5044916;28;42960;-81
2023/12/27 04:21:40;;;;;;;;;;;18.60;64.00;;;;;;5045733;28;43037;-81
2023/12/27 04:24:05;;;;;;;;;;;18.80;64.00;;;;;;5045407;28;43141;-80
2023/12/27 04:26:31;;;;;;;;;;;18.60;64.10;;;;;;5045779;28;43943;-80
2023/12/27 04:28:56;;;;;;;;;;;18.60;63.20;;;;;;5046286;28;42878;-81
2023/12/27 04:31:22;;;;;;;;;;;18.50;63.20;;;;;;5046401;28;42869;-80
2023/12/27 04:33:47;;;;;;;;;;;18.60;63.20;;;;;;5046194;28;43611;-81
2023/12/27 04:36:13;;;;;;;;;;;18.90;64.10;;;;;;5044970;28;43762;-80
2023/12/27 04:38:38;;;;;;;;;;;18.60;63.80;;;;;;5045276;28;42931;-82
2023/12/27 04:41:07;;;;;;;;;;;18.60;63.20;;;;;;5045249;28;43024;-82
2023/12/27 04:43:33;;;;;;;;;;;18.60;63.20;;;;;;5042425;28;42824;-82
2023/12/27 04:45:58;;;;;;;;;;;18.60;64.00;;;;;;5044627;28;43600;-82
2023/12/27 04:48:24;;;;;;;;;;;18.60;63.30;;;;;;5046085;28;43008;-82
2023/12/27 04:50:49;;;;;;;;;;;18.70;63.30;;;;;;5045698;28;43578;-82
2023/12/27 04:53:15;;;;;;;;;;;18.60;64.00;;;;;;5045983;28;42944;-81
2023/12/27 04:55:40;;;;;;;;;;;18.60;63.10;;;;;;5040380;28;43063;-82
2023/12/27 04:58:06;;;;;;;;;;;18.60;64.00;;;;;;5045959;28;43230;-80
2023/12/27 05:00:31;;;;;;;;;;;18.00;63.50;;;;;;5045483;28;43560;-80
2023/12/27 05:02:57;;;;;;;;;;;18.60;63.70;;;;;;5045236;28;42984;-81
2023/12/27 05:05:22;;;;;;;;;;;18.70;63.80;;;;;;5043861;28;44439;-81
2023/12/27 05:07:48;;;;;;;;;;;18.60;63.10;;;;;;5044631;28;43088;-81
2023/12/27 05:10:13;;;;;;;;;;;18.50;63.10;;;;;;5044856;28;42997;-81
2023/12/27 05:12:39;;;;;;;;;;;18.70;63.20;;;;;;5043541;28;43342;-81
2023/12/27 05:15:05;;;;;;;;;;;18.50;63.00;;;;;;5045156;28;43005;-81
2023/12/27 05:17:30;;;;;;;;;;;18.50;63.00;;;;;;5045010;28;42962;-81
2023/12/27 05:19:56;;;;;;;;;;;18.50;63.20;;;;;;5045310;28;42971;-82
2023/12/27 05:22:21;;;;;;;;;;;18.50;63.10;;;;;;5041568;28;42902;-82
2023/12/27 05:24:47;;;;;;;;;;;18.50;63.20;;;;;;5031939;28;42917;-80
2023/12/27 05:27:13;;;;;;;;;;;19.60;63.80;;;;;;5044852;28;42976;-81
2023/12/27 05:29:38;;;;;;;;;;;18.60;63.70;;;;;;5047413;28;42946;-81
2023/12/27 05:32:04;;;;;;;;;;;18.50;63.20;;;;;;5046618;28;43138;-80
2023/12/27 05:34:29;;;;;;;;;;;18.50;63.70;;;;;;5040855;28;43496;-81
2023/12/27 05:36:55;;;;;;;;;;;18.60;63.30;;;;;;5039098;28;43057;-81
2023/12/27 05:39:20;;;;;;;;;;;18.50;63.20;;;;;;5035839;28;43427;-81
2023/12/27 05:41:46;;;;;;;;;;;18.60;63.40;;;;;;5044691;28;43113;-80
2023/12/27 05:44:11;;;;;;;;;;;18.50;63.90;;;;;;5044064;28;43665;-86
2023/12/27 05:46:37;;;;;;;;;;;18.60;63.90;;;;;;5043352;28;43042;-81
2023/12/27 05:49:02;;;;;;;;;;;18.60;63.30;;;;;;5035378;28;42914;-82
2023/12/27 05:51:28;;;;;;;;;;;18.50;63.70;;;;;;5041606;28;43161;-82
2023/12/27 05:53:54;;;;;;;;;;;18.50;63.90;;;;;;5035205;28;42934;-83
2023/12/27 05:56:19;;;;;;;;;;;18.50;63.90;;;;;;5042712;28;43116;-82
2023/12/27 05:58:45;;;;;;;;;;;18.80;64.10;;;;;;5042608;28;43790;-80
2023/12/27 06:01:10;;;;;;;;;;;18.60;63.80;;;;;;5040534;28;43317;-81
2023/12/27 06:03:36;;;;;;;;;;;18.50;63.20;;;;;;5042210;28;43054;-83
2023/12/27 06:06:02;;;;;;;;;;;18.60;63.30;;;;;;5035082;28;42898;-83
2023/12/27 06:08:27;;;;;;;;;;;18.60;63.40;;;;;;5034277;28;42958;-82
2023/12/27 06:10:53;;;;;;;;;;;18.60;63.40;;;;;;5038100;28;42991;-83
2023/12/27 06:13:19;;;;;;;;;;;18.40;63.20;;;;;;5035523;28;43513;-83
2023/12/27 06:15:44;;;;;;;;;;;18.50;63.20;;;;;;5037660;28;42965;-83
2023/12/27 06:18:10;;;;;;;;;;;18.60;63.50;;;;;;5043387;28;43612;-83
2023/12/27 06:20:35;;;;;;;;;;;18.80;64.00;;;;;;5037806;28;43009;-83
2023/12/27 06:23:01;;;;;;;;;;;18.50;63.80;;;;;;5039249;28;42935;-82
2023/12/27 06:25:26;;;;;;;;;;;18.60;63.40;;;;;;5035284;28;43345;-82
2023/12/27 06:27:52;;;;;;;;;;;18.40;63.20;;;;;;5044408;28;42923;-84
2023/12/27 06:30:18;;;;;;;;;;;18.50;63.20;;;;;;5043097;28;42850;-87
2023/12/27 06:32:43;;;;;;;;;;;18.60;63.30;;;;;;5044161;28;43318;-83
2023/12/27 06:35:09;;;;;;;;;;;18.50;63.80;;;;;;5042335;28;43160;-83
2023/12/27 06:37:34;;;;;;;;;;;18.60;63.20;;;;;;5039401;28;43699;-82
2023/12/27 06:40:00;;;;;;;;;;;18.60;63.20;;;;;;5042865;28;43003;-80
2023/12/27 06:42:25;;;;;;;;;;;18.70;63.20;;;;;;5044425;28;43555;-79
2023/12/27 06:44:51;;;;;;;;;;;18.40;63.60;;;;;;5042782;28;42843;-80
2023/12/27 06:47:16;;;;;;;;;;;18.50;63.40;;;;;;5043692;28;43464;-80
2023/12/27 06:49:42;;;;;;;;;;;18.50;63.30;;;;;;5044387;28;43147;-84
2023/12/27 06:52:08;;;;;;;;;;;18.50;62.80;;;;;;5044291;28;43618;-82
2023/12/27 06:54:36;;;;;;;;;;;18.50;62.80;;;;;;5035198;28;42942;-81
2023/12/27 06:57:03;;;;;;;;;;;18.50;61.50;;;;;;5027331;28;43050;-86
2023/12/27 06:59:28;;;;;;;;;;;18.40;62.70;;;;;;5032550;28;43024;-86
2023/12/27 07:01:54;;;;;;;;;;;18.70;63.40;;;;;;5040219;28;43011;-80
2023/12/27 07:04:20;;;;;;;;;;;18.30;62.70;;;;;;5037090;28;42982;-84
2023/12/27 07:06:47;;;;;;;;;;;18.50;62.80;;;;;;5042687;28;64270;-82
2023/12/27 07:09:14;;;;;;;;;;;18.50;63.30;;;;;;5038576;28;42999;-81
2023/12/27 07:11:39;;;;;;;;;;;18.50;63.30;;;;;;5043286;28;43657;-84
2023/12/27 07:14:04;;;;;;;;;;;18.50;63.10;;;;;;5041532;28;42954;-82
2023/12/27 07:16:30;;;;;;;;;;;18.50;63.30;;;;;;5043798;28;43770;-82
2023/12/27 07:18:56;;;;;;;;;;;18.40;63.00;;;;;;5042968;28;43002;-82
2023/12/27 07:21:22;;;;;;;;;;;18.60;62.20;;;;;;5041395;28;44513;-84
2023/12/27 07:23:47;;;;;;;;;;;18.70;62.40;;;;;;5042540;28;43018;-83
2023/12/27 07:26:13;;;;;;;;;;;18.40;62.00;;;;;;5041180;28;43064;-82
2023/12/27 07:28:39;;;;;;;;;;;18.40;62.10;;;;;;5039420;28;43072;-83
2023/12/27 07:31:05;;;;;;;;;;;18.40;62.70;;;;;;5043100;28;43599;-81
2023/12/27 07:33:31;;;;;;;;;;;18.50;62.40;;;;;;5040446;28;42959;-83
2023/12/27 07:35:56;;;;;;;;;;;18.50;62.40;;;;;;5039530;28;43027;-82
2023/12/27 07:38:23;;;;;;;;;;;18.40;62.90;;;;;;5037822;28;43015;-82
2023/12/27 07:40:48;;;;;;;;;;;18.40;62.30;;;;;;5033420;28;42879;-85
2023/12/27 07:43:14;;;;;;;;;;;18.60;62.50;;;;;;5034581;28;42887;-82
2023/12/27 07:45:39;;;;;;;;;;;18.40;63.00;;;;;;5039830;28;42973;-83
2023/12/27 07:48:05;;;;;;;;;;;18.40;62.00;;;;;;5046611;28;43224;-83
2023/12/27 07:50:31;;;;;;;;;;;18.60;61.80;;;;;;5038124;28;42878;-84
2023/12/27 07:52:56;;;;;;;;;;;18.40;62.10;;;;;;5043615;28;43046;-83
2023/12/27 07:55:22;;;;;;;;;;;18.50;61.70;;;;;;5040525;28;43066;-83
2023/12/27 07:57:47;;;;;;;;;;;18.60;61.60;;;;;;5040989;28;43074;-84
2023/12/27 08:00:15;;;;;;;;;;;18.50;61.60;;;;;;5043958;28;43778;-83
2023/12/27 08:02:41;;;;;;;;;;;18.30;60.80;;;;;;5043566;28;43182;-83
2023/12/27 08:05:07;;;;;;;;;;;18.60;61.20;;;;;;5039194;28;43097;-84
2023/12/27 08:07:32;;;;;;;;;;;18.40;60.40;;;;;;5042891;28;42913;-81
2023/12/27 08:09:58;;;;;;;;;;;18.30;60.20;;;;;;5042676;28;43577;-85
2023/12/27 08:12:23;;;;;;;;;;;18.50;59.90;;;;;;5036806;28;42937;-84
2023/12/27 08:14:49;;;;;;;;;;;18.30;59.30;;;;;;5045657;28;43291;-82
2023/12/27 08:17:15;;;;;;;;;;;18.50;59.80;;;;;;5045700;28;42912;-82
2023/12/27 08:19:41;;;;;;;;;;;18.60;57.80;;;;;;5045345;28;43900;-80
2023/12/27 08:22:06;;;;;;;;;;;18.10;51.50;;;;;;5043681;28;42957;-81
2023/12/27 08:24:32;;;;;;;;;;;17.90;50.40;;;;;;5042952;28;43528;-80
2023/12/27 08:26:58;;;;;;;;;;;17.50;50.80;;;;;;5039451;28;42931;-80
2023/12/27 08:29:24;;;;;;;;;;;17.20;51.50;;;;;;5037762;28;44561;-81
2023/12/27 08:31:50;;;;;;;;;;;17.10;51.20;;;;;;5044783;28;43220;-80
2023/12/27 08:34:16;;;;;;;;;;;16.90;51.30;;;;;;5033277;28;43205;-81
2023/12/27 08:36:45;;;;;;;;;;;16.90;51.70;;;;;;5037415;28;43057;-80
2023/12/27 08:39:11;;;;;;;;;;;16.50;52.00;;;;;;5039854;28;43020;-80
2023/12/27 08:41:36;;;;;;;;;;;16.20;52.40;;;;;;5033056;28;42958;-78
2023/12/27 08:44:02;;;;;;;;;;;16.20;52.50;;;;;;5032687;28;42997;-78
2023/12/27 08:46:28;;;;;;;;;;;16.30;54.30;;;;;;5046416;28;42868;-80
2023/12/27 08:48:54;;;;;;;;;;;16.30;53.50;;;;;;5038213;28;44097;-78
2023/12/27 08:51:19;;;;;;;;;;;16.40;52.70;;;;;;5032234;28;43241;-78
2023/12/27 08:53:45;;;;;;;;;;;16.30;51.70;;;;;;5036520;28;43062;-79
2023/12/27 08:56:10;;;;;;;;;;;16.40;51.90;;;;;;5033798;28;42990;-80
2023/12/27 08:58:36;;;;;;;;;;;16.50;52.60;;;;;;5043595;28;44034;-80
2023/12/27 09:01:02;;;;;;;;;;;16.60;53.80;;;;;;5038195;28;43387;-79
2023/12/27 09:03:27;;;;;;;;;;;16.70;54.00;;;;;;5045394;28;43281;-79
2023/12/27 09:05:53;;;;;;;;;;;17.10;54.40;;;;;;5045549;28;43124;-79
2023/12/27 09:08:18;;;;;;;;;;;17.00;54.40;;;;;;5045398;28;43687;-79
2023/12/27 09:10:44;;;;;;;;;;;17.20;54.50;;;;;;5042821;28;43102;-80
2023/12/27 09:13:10;;;;;;;;;;;17.10;54.00;;;;;;5041893;28;42997;-80
2023/12/27 09:15:35;;;;;;;;;;;17.30;54.10;;;;;;5045368;28;42998;-81
2023/12/27 09:18:01;;;;;;;;;;;17.40;54.60;;;;;;5047366;28;43184;-80
2023/12/27 09:20:26;;;;;;;;;;;17.20;54.40;;;;;;5044300;28;43129;-81
2023/12/27 09:22:52;;;;;;;;;;;17.40;54.60;;;;;;5044732;28;42936;-80
2023/12/27 09:25:17;;;;;;;;;;;17.40;55.30;;;;;;5044819;28;42759;-80
2023/12/27 09:27:44;;;;;;;;;;;17.70;55.00;;;;;;5039426;28;42944;-81
2023/12/27 09:30:10;;;;;;;;;;;17.50;54.90;;;;;;5045320;28;43267;-81
2023/12/27 09:32:36;;;;;;;;;;;17.50;54.80;;;;;;5039217;28;43017;-80
2023/12/27 09:35:02;;;;;;;;;;;17.60;55.70;;;;;;5034321;28;43034;-81
2023/12/27 09:37:29;;;;;;;;;;;17.70;55.40;;;;;;5044409;28;42958;-80
2023/12/27 09:39:54;;;;;;;;;;;17.50;55.90;;;;;;5032904;28;43900;-82
2023/12/27 09:42:20;;;;;;;;;;;17.60;55.60;;;;;;5032719;28;43883;-81
2023/12/27 09:44:48;;;;;;;;;;;17.60;55.90;;;;;;5044973;28;43060;-81
2023/12/27 09:47:15;;;;;;;;;;;17.70;53.70;;;;;;5038135;28;42995;-80
2023/12/27 09:49:40;;;;;;;;;;;17.80;52.60;;;;;;5039229;28;42850;-81
2023/12/27 09:52:07;;;;;;;;;;;17.60;53.60;;;;;;5042455;28;42887;-80
2023/12/27 09:54:32;;;;;;;;;;;17.70;52.50;;;;;;5040598;28;43222;-81
2023/12/27 09:56:58;;;;;;;;;;;17.50;51.60;;;;;;5038235;28;44692;-81
2023/12/27 09:59:27;;;;;;;;;;;17.30;51.30;;;;;;5038420;28;43269;-83
2023/12/27 10:01:54;;;;;;;;;;;17.30;50.80;;;;;;5041104;28;43298;-81
2023/12/27 10:04:20;;;;;;;;;;;17.30;50.70;;;;;;5036083;28;42820;-83
2023/12/27 10:06:46;;;;;;;;;;;17.20;50.00;;;;;;5029695;28;44058;-83
2023/12/27 10:09:12;;;;;;;;;;;17.50;50.00;;;;;;5039617;28;43151;-82
2023/12/27 10:11:40;;;;;;;;;;;17.20;50.00;;;;;;5038935;28;43476;-82
2023/12/27 10:14:06;;;;;;;;;;;17.00;50.10;;;;;;5043211;28;43056;-86
2023/12/27 10:16:32;;;;;;;;;;;16.90;50.30;;;;;;5043498;28;45478;-84
2023/12/27 10:18:59;;;;;;;;;;;17.10;50.50;;;;;;5040193;28;42985;-85
2023/12/27 10:21:25;;;;;;;;;;;16.90;50.30;;;;;;5037632;28;45035;-84
2023/12/27 10:23:50;;;;;;;;;;;16.90;51.20;;;;;;5041682;28;43230;-80
2023/12/27 10:26:16;;;;;;;;;;;17.10;51.20;;;;;;5043511;28;43182;-83
2023/12/27 10:28:44;;;;;;;;;;;16.90;51.00;;;;;;5042875;28;42994;-80
2023/12/27 10:31:10;;;;;;;;;;;16.90;51.30;;;;;;5041337;28;43247;-79
2023/12/27 10:33:39;;;;;;;;;;;16.80;51.50;;;;;;5036301;28;43002;-81
2023/12/27 10:36:04;;;;;;;;;;;16.90;51.50;;;;;;5032872;28;43048;-82
2023/12/27 10:38:30;;;;;;;;;;;16.80;51.40;;;;;;5041372;28;43093;-82
2023/12/27 10:40:56;;;;;;;;;;;16.80;51.40;;;;;;5041094;28;43039;-82
2023/12/27 10:43:22;;;;;;;;;;;;;;;;;;5043743;28;42820;-82
2023/12/27 10:45:47;;;;;;;;;;;16.80;51.50;;;;;;5043749;28;43016;-83
2023/12/27 10:48:14;;;;;;;;;;;16.90;51.30;;;;;;5041074;28;43014;-83
2023/12/27 10:50:40;;;;;;;;;;;16.80;51.30;;;;;;5042828;28;43013;-80
2023/12/27 10:53:06;;;;;;;;;;;16.80;51.20;;;;;;5041419;28;43330;-83
2023/12/27 10:55:33;;;;;;;;;;;16.70;51.20;;;;;;5032315;28;43164;-81
2023/12/27 10:57:59;;;;;;;;;;;16.80;51.30;;;;;;5038723;28;42918;-82
2023/12/27 11:00:25;;;;;;;;;;;16.80;51.40;;;;;;5035796;28;42820;-81
2023/12/27 11:02:51;;;;;;;;;;;16.70;51.50;;;;;;5039724;28;42970;-83
2023/12/27 11:05:18;;;;;;;;;;;16.80;52.10;;;;;;5045301;28;43839;-84
2023/12/27 11:07:45;;;;;;;;;;;16.70;52.10;;;;;;5040766;28;43022;-83
2023/12/27 11:10:12;;;;;;;;;;;16.80;52.30;;;;;;5039468;28;43873;-83
2023/12/27 11:12:38;;;;;;;;;;;16.80;52.50;;;;;;5042479;28;43077;-83
2023/12/27 11:15:05;;;;;;;;;;;17.00;52.60;;;;;;5041408;28;44711;-83
2023/12/27 11:17:34;;;;;;;;;;;16.70;52.50;;;;;;5040965;28;43057;-84
2023/12/27 11:20:00;;;;;;;;;;;17.00;52.90;;;;;;5036799;28;43716;-80
2023/12/27 11:22:25;;;;;;;;;;;16.70;53.60;;;;;;5041101;28;43093;-80
2023/12/27 11:24:51;;;;;;;;;;;17.00;53.50;;;;;;5037011;28;43060;-84
2023/12/27 11:27:17;;;;;;;;;;;17.00;53.60;;;;;;5040913;28;43216;-80
2023/12/27 11:29:43;;;;;;;;;;;17.00;53.90;;;;;;5041260;28;43174;-81
2023/12/27 11:32:08;;;;;;;;;;;16.80;52.70;;;;;;5043379;28;43068;-84
2023/12/27 11:34:36;;;;;;;;;;;16.90;52.40;;;;;;5045496;28;42981;-85
2023/12/27 11:37:03;;;;;;;;;;;17.10;52.50;;;;;;5041859;28;43129;-84
2023/12/27 11:39:29;;;;;;;;;;;17.00;52.60;;;;;;5046655;28;43769;-85
2023/12/27 11:41:54;;;;;;;;;;;16.90;52.70;;;;;;5046917;28;43034;-85
2023/12/27 11:44:20;;;;;;;;;;;17.00;52.70;;;;;;5046013;28;43632;-85
2023/12/27 11:46:46;;;;;;;;;;;17.00;52.80;;;;;;5046208;28;43354;-85
2023/12/27 11:49:20;;;;;;;;;;;17.00;52.70;;;;;;5046501;28;43723;-85
2023/12/27 11:51:46;;;;;;;;;;;16.90;52.90;;;;;;5044115;28;42954;-85
2023/12/27 11:54:22;;;;;;;;;;;17.00;52.50;;;;;;5046552;28;43943;-85
2023/12/27 11:56:47;;;;;;;;;;;17.00;52.90;;;;;;5045926;28;43154;-85
2023/12/27 11:59:14;;;;;;;;;;;17.00;53.30;;;;;;5046364;28;43063;-84
2023/12/27 12:01:41;;;;;;;;;;;17.00;53.60;;;;;;5046338;28;42849;-83
2023/12/27 12:04:12;;;;;;;;;;;17.10;53.10;;;;;;5047604;28;43832;-84
2023/12/27 12:06:48;;;;;;;;;;;16.80;52.90;;;;;;5042057;28;43204;-83
2023/12/27 12:09:15;;;;;;;;;;;16.80;52.70;;;;;;5041160;28;43088;-82
2023/12/27 12:11:46;;;;;;;;;;;16.60;54.00;;;;;;5042234;28;43037;-83
2023/12/27 12:14:12;;;;;;;;;;;;;;;;;;5042530;28;42965;-81
2023/12/27 12:16:38;;;;;;;;;;;16.70;53.10;;;;;;5054623;28;43208;-84
2023/12/27 12:19:05;;;;;;;;;;;16.80;52.30;;;;;;5043413;28;43374;-85
2023/12/27 12:21:31;;;;;;;;;;;16.60;52.20;;;;;;5035484;28;42900;-83
2023/12/27 12:23:57;;;;;;;;;;;;;;;;;;5040737;28;42918;-83
2023/12/27 12:26:23;;;;;;;;;;;16.60;53.50;;;;;;5043081;28;42919;-84
2023/12/27 12:28:55;;;;;;;;;;;16.70;53.40;;;;;;5043811;28;43895;-83
2023/12/27 12:31:21;;;;;;;;;;;16.90;53.90;;;;;;5039132;28;43052;-83
2023/12/27 12:33:46;;;;;;;;;;;16.70;52.80;;;;;;5040172;28;43388;-82
2023/12/27 12:36:12;;;;;;;;;;;16.60;52.10;;;;;;5036673;28;43253;-81
2023/12/27 12:38:37;;;;;;;;;;;16.80;53.00;;;;;;5039334;28;43205;-85
2023/12/27 12:41:03;;;;;;;;;;;16.70;52.10;;;;;;5036858;28;43381;-83
2023/12/27 12:43:28;;;;;;;;;;;16.90;51.90;;;;;;5043061;28;43064;-82
2023/12/27 12:45:57;;;;;;;;;;;16.80;51.70;;;;;;5041667;28;43038;-82
2023/12/27 12:48:23;;;;;;;;;;;;;;;;;;5041843;28;43465;-80
2023/12/27 12:50:48;;;;;;;;;;;16.80;51.80;;;;;;5043774;28;42973;-83
2023/12/27 12:53:17;;;;;;;;;;;16.70;51.90;;;;;;5043675;28;43649;-81
2023/12/27 12:55:47;;;;;;;;;;;16.80;52.20;;;;;;5043189;28;43024;-82
2023/12/27 12:58:12;;;;;;;;;;;16.60;52.00;;;;;;5041209;28;45487;-83
2023/12/27 13:00:38;;;;;;;;;;;16.80;51.90;;;;;;5037888;28;42927;-83
2023/12/27 13:03:06;;;;;;;;;;;16.80;52.10;;;;;;5043810;28;43230;-83
2023/12/27 13:05:31;;;;;;;;;;;16.70;52.00;;;;;;5035205;28;43113;-84
2023/12/27 13:07:57;;;;;;;;;;;16.70;51.90;;;;;;5033399;28;42966;-80
2023/12/27 13:10:22;;;;;;;;;;;16.60;51.30;;;;;;5041733;28;43160;-81
2023/12/27 13:12:48;;;;;;;;;;;16.70;51.40;;;;;;5039925;28;43435;-81
2023/12/27 13:15:19;;;;;;;;;;;16.70;51.30;;;;;;5039145;28;43028;-80
2023/12/27 13:17:45;;;;;;;;;;;16.60;51.20;;;;;;5029260;28;44468;-79
2023/12/27 13:20:10;;;;;;;;;;;16.60;52.80;;;;;;5040479;28;43029;-78
2023/12/27 13:22:36;;;;;;;;;;;16.90;53.30;;;;;;5039694;28;43515;-78
2023/12/27 13:25:02;;;;;;;;;;;16.70;53.00;;;;;;5041859;28;43107;-79
2023/12/27 13:27:27;;;;;;;;;;;17.10;53.60;;;;;;5036476;28;43153;-77
2023/12/27 13:29:53;;;;;;;;;;;17.00;53.70;;;;;;5036258;28;43160;-79
2023/12/27 13:32:18;;;;;;;;;;;17.20;54.30;;;;;;5040596;28;43411;-78
2023/12/27 13:34:44;;;;;;;;;;;17.20;52.20;;;;;;5039885;28;43047;-78
2023/12/27 13:37:09;;;;;;;;;;;17.00;53.40;;;;;;5039124;28;43726;-78
2023/12/27 13:39:35;;;;;;;;;;;17.20;53.20;;;;;;5040998;28;43224;-79
2023/12/27 13:42:00;;;;;;;;;;;17.30;53.20;;;;;;5044032;28;43091;-80
2023/12/27 13:44:26;;;;;;;;;;;17.20;53.00;;;;;;5042879;28;43741;-79
2023/12/27 13:46:52;;;;;;;;;;;17.30;53.30;;;;;;5037486;28;43318;-77
2023/12/27 13:49:17;;;;;;;;;;;17.10;53.70;;;;;;5039068;28;43014;-79
2023/12/27 13:51:43;;;;;;;;;;;17.40;53.50;;;;;;5036329;28;43729;-79
2023/12/27 13:54:09;;;;;;;;;;;17.40;53.50;;;;;;5040998;28;42918;-79
2023/12/27 13:56:35;;;;;;;;;;;17.50;53.80;;;;;;5043080;28;43832;-78
2023/12/27 13:59:02;;;;;;;;;;;17.40;54.60;;;;;;5036978;28;42980;-79
2023/12/27 14:01:28;;;;;;;;;;;16.70;53.70;;;;;;5043525;28;44182;-78
2023/12/27 14:03:54;;;;;;;;;;;17.50;54.70;;;;;;5035460;28;43107;-77
2023/12/27 14:06:19;;;;;;;;;;;17.50;54.90;;;;;;5043311;28;43077;-78
2023/12/27 14:08:45;;;;;;;;;;;17.70;54.60;;;;;;5042784;28;42996;-79
2023/12/27 14:11:10;;;;;;;;;;;17.80;54.90;;;;;;5042617;28;43992;-79
2023/12/27 14:13:36;;;;;;;;;;;17.80;54.80;;;;;;5039459;28;42995;-78
2023/12/27 14:16:02;;;;;;;;;;;17.80;55.20;;;;;;5041507;28;44493;-77